sensor_id;sensor_type;location;lat;lon;timestamp;pressure;altitude;pressure_sealevel;temperature;humidity
10079;BME280;5078;42.544;22.966;2023-04-24T00:00:35;93661.56;;;12.01;84.81
10079;BME280;5078;42.544;22.966;2023-04-24T00:03:03;93666.50;;;12.04;84.94
10079;BME280;5078;42.544;22.966;2023-04-24T00:05:31;93669.47;;;11.95;85.46
10079;BME280;5078;42.544;22.966;2023-04-24T00:07:59;93669.09;;;11.98;86.01
10079;BME280;5078;42.544;22.966;2023-04-24T00:10:26;93664.38;;;11.93;86.79
10079;BME280;5078;42.544;22.966;2023-04-24T00:12:53;93648.88;;;11.82;86.38
10079;BME280;5078;42.544;22.966;2023-04-24T00:15:19;93657.78;;;11.74;88.02
10079;BME280;5078;42.544;22.966;2023-04-24T00:17:46;93660.28;;;11.76;88.58
10079;BME280;5078;42.544;22.966;2023-04-24T00:20:13;93664.72;;;11.54;92.00
10079;BME280;5078;42.544;22.966;2023-04-24T00:22:40;93656.63;;;11.62;92.43
10079;BME280;5078;42.544;22.966;2023-04-24T00:25:08;93665.75;;;11.74;91.86
10079;BME280;5078;42.544;22.966;2023-04-24T00:27:35;93640.69;;;11.62;91.65
10079;BME280;5078;42.544;22.966;2023-04-24T00:30:03;93665.19;;;11.94;90.86
10079;BME280;5078;42.544;22.966;2023-04-24T00:32:30;93649.00;;;11.74;91.41
10079;BME280;5078;42.544;22.966;2023-04-24T00:34:57;93666.66;;;11.81;91.93
10079;BME280;5078;42.544;22.966;2023-04-24T00:37:24;93663.78;;;11.98;91.04
10079;BME280;5078;42.544;22.966;2023-04-24T00:39:50;93660.38;;;12.04;89.64
10079;BME280;5078;42.544;22.966;2023-04-24T00:42:18;93662.00;;;12.05;90.00
10079;BME280;5078;42.544;22.966;2023-04-24T00:44:45;93664.75;;;12.12;89.54
10079;BME280;5078;42.544;22.966;2023-04-24T00:47:12;93670.31;;;11.80;92.26
10079;BME280;5078;42.544;22.966;2023-04-24T00:49:39;93664.72;;;11.90;92.25
10079;BME280;5078;42.544;22.966;2023-04-24T00:52:06;93664.78;;;11.97;91.73
10079;BME280;5078;42.544;22.966;2023-04-24T00:54:34;93662.78;;;11.84;94.64
10079;BME280;5078;42.544;22.966;2023-04-24T00:57:01;93650.97;;;11.50;100.00
10079;BME280;5078;42.544;22.966;2023-04-24T00:59:29;93642.72;;;11.23;100.00
10079;BME280;5078;42.544;22.966;2023-04-24T01:01:56;93635.00;;;11.29;100.00
10079;BME280;5078;42.544;22.966;2023-04-24T01:04:24;93639.94;;;11.32;100.00
10079;BME280;5078;42.544;22.966;2023-04-24T01:06:51;93632.69;;;11.26;100.00
10079;BME280;5078;42.544;22.966;2023-04-24T01:09:19;93615.44;;;11.15;100.00
10079;BME280;5078;42.544;22.966;2023-04-24T01:11:48;93620.38;;;11.18;100.00
10079;BME280;5078;42.544;22.966;2023-04-24T01:14:14;93615.34;;;11.08;100.00
10079;BME280;5078;42.544;22.966;2023-04-24T01:16:43;93604.47;;;11.03;100.00
10079;BME280;5078;42.544;22.966;2023-04-24T01:19:10;93591.03;;;11.05;100.00
10079;BME280;5078;42.544;22.966;2023-04-24T01:21:38;93588.47;;;10.96;100.00
10079;BME280;5078;42.544;22.966;2023-04-24T01:24:07;93589.75;;;11.00;100.00
10079;BME280;5078;42.544;22.966;2023-04-24T01:26:34;93611.53;;;11.11;100.00
10079;BME280;5078;42.544;22.966;2023-04-24T01:29:01;93609.56;;;11.19;100.00
10079;BME280;5078;42.544;22.966;2023-04-24T01:31:28;93619.44;;;11.26;100.00
10079;BME280;5078;42.544;22.966;2023-04-24T01:33:56;93612.59;;;11.31;100.00
10079;BME280;5078;42.544;22.966;2023-04-24T01:36:23;93609.81;;;11.39;100.00
10079;BME280;5078;42.544;22.966;2023-04-24T01:38:52;93605.06;;;11.35;100.00
10079;BME280;5078;42.544;22.966;2023-04-24T01:41:20;93603.06;;;11.22;100.00
10079;BME280;5078;42.544;22.966;2023-04-24T01:43:48;93608.91;;;11.32;100.00
10079;BME280;5078;42.544;22.966;2023-04-24T01:46:16;93604.63;;;11.31;100.00
10079;BME280;5078;42.544;22.966;2023-04-24T01:48:44;93607.75;;;11.20;100.00
10079;BME280;5078;42.544;22.966;2023-04-24T01:51:11;93609.97;;;11.16;100.00
10079;BME280;5078;42.544;22.966;2023-04-24T01:53:38;93619.84;;;11.08;100.00
10079;BME280;5078;42.544;22.966;2023-04-24T01:56:05;93610.78;;;10.87;100.00
10079;BME280;5078;42.544;22.966;2023-04-24T01:58:33;93609.69;;;10.96;100.00
10079;BME280;5078;42.544;22.966;2023-04-24T02:01:00;93603.94;;;10.78;100.00
10079;BME280;5078;42.544;22.966;2023-04-24T02:03:26;93610.91;;;10.64;100.00
10079;BME280;5078;42.544;22.966;2023-04-24T02:05:53;93605.13;;;10.75;100.00
10079;BME280;5078;42.544;22.966;2023-04-24T02:08:20;93595.97;;;10.78;100.00
10079;BME280;5078;42.544;22.966;2023-04-24T02:10:47;93587.84;;;10.65;100.00
10079;BME280;5078;42.544;22.966;2023-04-24T02:13:13;93591.03;;;10.45;100.00
10079;BME280;5078;42.544;22.966;2023-04-24T02:15:41;93586.66;;;10.38;100.00
10079;BME280;5078;42.544;22.966;2023-04-24T02:18:08;93589.06;;;10.24;100.00
10079;BME280;5078;42.544;22.966;2023-04-24T02:20:36;93492.16;;;9.62;100.00
10079;BME280;5078;42.544;22.966;2023-04-24T02:23:03;93588.84;;;10.34;100.00
10079;BME280;5078;42.544;22.966;2023-04-24T02:25:30;93588.31;;;10.39;100.00
10079;BME280;5078;42.544;22.966;2023-04-24T02:27:57;93560.19;;;10.14;100.00
10079;BME280;5078;42.544;22.966;2023-04-24T02:30:23;93586.56;;;10.31;100.00
10079;BME280;5078;42.544;22.966;2023-04-24T02:32:51;93583.41;;;10.27;100.00
10079;BME280;5078;42.544;22.966;2023-04-24T02:35:19;93557.91;;;10.11;100.00
10079;BME280;5078;42.544;22.966;2023-04-24T02:37:45;93588.88;;;10.26;100.00
10079;BME280;5078;42.544;22.966;2023-04-24T02:40:12;93591.66;;;10.32;100.00
10079;BME280;5078;42.544;22.966;2023-04-24T02:42:39;93586.84;;;10.36;100.00
10079;BME280;5078;42.544;22.966;2023-04-24T02:45:07;93583.28;;;10.44;100.00
10079;BME280;5078;42.544;22.966;2023-04-24T02:47:33;93570.56;;;10.39;100.00
10079;BME280;5078;42.544;22.966;2023-04-24T02:50:02;93576.16;;;10.59;100.00
10079;BME280;5078;42.544;22.966;2023-04-24T02:52:29;93568.75;;;10.54;100.00
10079;BME280;5078;42.544;22.966;2023-04-24T02:54:56;93570.84;;;10.44;100.00
10079;BME280;5078;42.544;22.966;2023-04-24T02:57:22;93572.41;;;10.39;100.00
10079;BME280;5078;42.544;22.966;2023-04-24T02:59:49;93567.66;;;10.34;100.00
10079;BME280;5078;42.544;22.966;2023-04-24T03:02:16;93576.44;;;10.11;100.00
10079;BME280;5078;42.544;22.966;2023-04-24T03:04:43;93577.81;;;10.07;100.00
10079;BME280;5078;42.544;22.966;2023-04-24T03:07:11;93574.78;;;10.10;100.00
10079;BME280;5078;42.544;22.966;2023-04-24T03:09:38;93573.78;;;10.11;100.00
10079;BME280;5078;42.544;22.966;2023-04-24T03:12:04;93582.59;;;10.27;100.00
10079;BME280;5078;42.544;22.966;2023-04-24T03:14:31;93578.47;;;10.24;100.00
10079;BME280;5078;42.544;22.966;2023-04-24T03:16:58;93574.03;;;10.40;100.00
10079;BME280;5078;42.544;22.966;2023-04-24T03:19:25;93568.56;;;10.41;100.00
10079;BME280;5078;42.544;22.966;2023-04-24T03:21:51;93578.25;;;10.34;100.00
10079;BME280;5078;42.544;22.966;2023-04-24T03:24:19;93571.06;;;10.20;100.00
10079;BME280;5078;42.544;22.966;2023-04-24T03:26:46;93581.44;;;10.29;100.00
10079;BME280;5078;42.544;22.966;2023-04-24T03:29:13;93578.28;;;10.26;100.00
10079;BME280;5078;42.544;22.966;2023-04-24T03:31:40;93581.44;;;10.29;100.00
10079;BME280;5078;42.544;22.966;2023-04-24T03:34:06;93577.28;;;10.27;100.00
10079;BME280;5078;42.544;22.966;2023-04-24T03:36:33;93578.00;;;10.21;100.00
10079;BME280;5078;42.544;22.966;2023-04-24T03:39:00;93576.66;;;10.25;100.00
10079;BME280;5078;42.544;22.966;2023-04-24T03:41:28;93572.88;;;10.04;100.00
10079;BME280;5078;42.544;22.966;2023-04-24T03:43:55;93562.66;;;10.16;100.00
10079;BME280;5078;42.544;22.966;2023-04-24T03:46:22;93572.97;;;10.11;100.00
10079;BME280;5078;42.544;22.966;2023-04-24T03:48:49;93573.56;;;9.98;100.00
10079;BME280;5078;42.544;22.966;2023-04-24T03:51:16;93574.00;;;9.87;100.00
10079;BME280;5078;42.544;22.966;2023-04-24T03:53:42;93573.16;;;10.09;100.00
10079;BME280;5078;42.544;22.966;2023-04-24T03:56:09;93578.28;;;10.11;100.00
10079;BME280;5078;42.544;22.966;2023-04-24T03:58:37;93582.47;;;10.20;100.00
10079;BME280;5078;42.544;22.966;2023-04-24T04:01:04;93581.44;;;10.44;100.00
10079;BME280;5078;42.544;22.966;2023-04-24T04:03:31;93575.25;;;10.52;100.00
10079;BME280;5078;42.544;22.966;2023-04-24T04:05:57;93578.34;;;10.55;100.00
10079;BME280;5078;42.544;22.966;2023-04-24T04:08:24;93578.81;;;10.74;100.00
10079;BME280;5078;42.544;22.966;2023-04-24T04:10:51;93578.06;;;10.80;100.00
10079;BME280;5078;42.544;22.966;2023-04-24T04:13:18;93580.00;;;10.86;100.00
10079;BME280;5078;42.544;22.966;2023-04-24T04:15:46;93579.72;;;10.81;100.00
10079;BME280;5078;42.544;22.966;2023-04-24T04:18:12;93587.56;;;10.89;100.00
10079;BME280;5078;42.544;22.966;2023-04-24T04:20:39;93581.25;;;10.90;100.00
10079;BME280;5078;42.544;22.966;2023-04-24T04:23:06;93582.53;;;10.94;100.00
10079;BME280;5078;42.544;22.966;2023-04-24T04:25:32;93585.09;;;10.88;100.00
10079;BME280;5078;42.544;22.966;2023-04-24T04:27:59;93593.25;;;10.86;100.00
10079;BME280;5078;42.544;22.966;2023-04-24T04:30:27;93590.50;;;10.65;100.00
10079;BME280;5078;42.544;22.966;2023-04-24T04:32:56;93585.03;;;10.81;100.00
10079;BME280;5078;42.544;22.966;2023-04-24T04:35:22;93591.50;;;10.93;100.00
10079;BME280;5078;42.544;22.966;2023-04-24T04:37:50;93589.44;;;11.10;100.00
10079;BME280;5078;42.544;22.966;2023-04-24T04:40:17;93589.38;;;11.18;100.00
10079;BME280;5078;42.544;22.966;2023-04-24T04:42:43;93593.41;;;11.51;100.00
10079;BME280;5078;42.544;22.966;2023-04-24T04:45:11;93585.09;;;11.60;100.00
10079;BME280;5078;42.544;22.966;2023-04-24T04:47:38;93584.63;;;11.35;100.00
10079;BME280;5078;42.544;22.966;2023-04-24T04:50:08;93592.59;;;11.35;100.00
10079;BME280;5078;42.544;22.966;2023-04-24T04:52:35;93596.19;;;11.28;100.00
10079;BME280;5078;42.544;22.966;2023-04-24T04:55:02;93592.78;;;11.49;100.00
10079;BME280;5078;42.544;22.966;2023-04-24T04:57:30;93588.44;;;11.26;100.00
10079;BME280;5078;42.544;22.966;2023-04-24T04:59:57;93594.31;;;11.07;100.00
10079;BME280;5078;42.544;22.966;2023-04-24T05:02:24;93602.56;;;10.82;100.00
10079;BME280;5078;42.544;22.966;2023-04-24T05:04:50;93604.41;;;10.96;100.00
10079;BME280;5078;42.544;22.966;2023-04-24T05:07:20;93595.50;;;11.19;100.00
10079;BME280;5078;42.544;22.966;2023-04-24T05:09:46;93596.09;;;11.36;100.00
10079;BME280;5078;42.544;22.966;2023-04-24T05:12:13;93597.56;;;11.38;100.00
10079;BME280;5078;42.544;22.966;2023-04-24T05:14:40;93590.13;;;11.70;100.00
10079;BME280;5078;42.544;22.966;2023-04-24T05:17:06;93582.84;;;12.00;100.00
10079;BME280;5078;42.544;22.966;2023-04-24T05:19:33;93583.88;;;12.49;100.00
10079;BME280;5078;42.544;22.966;2023-04-24T05:22:03;93592.38;;;13.07;100.00
10079;BME280;5078;42.544;22.966;2023-04-24T05:24:33;93595.66;;;13.57;100.00
10079;BME280;5078;42.544;22.966;2023-04-24T05:27:00;93590.41;;;13.97;95.53
10079;BME280;5078;42.544;22.966;2023-04-24T05:29:27;93588.19;;;14.28;88.91
10079;BME280;5078;42.544;22.966;2023-04-24T05:31:56;93593.09;;;14.04;87.45
10079;BME280;5078;42.544;22.966;2023-04-24T05:34:23;93596.19;;;14.34;85.93
10079;BME280;5078;42.544;22.966;2023-04-24T05:36:50;93593.94;;;14.24;85.79
10079;BME280;5078;42.544;22.966;2023-04-24T05:39:17;93595.00;;;14.57;83.67
10079;BME280;5078;42.544;22.966;2023-04-24T05:41:46;93584.47;;;14.82;80.25
10079;BME280;5078;42.544;22.966;2023-04-24T05:44:12;93589.00;;;14.81;76.02
10079;BME280;5078;42.544;22.966;2023-04-24T05:46:39;93589.66;;;14.57;77.19
10079;BME280;5078;42.544;22.966;2023-04-24T05:49:06;93584.91;;;14.52;79.69
10079;BME280;5078;42.544;22.966;2023-04-24T05:51:33;93590.63;;;14.82;77.60
10079;BME280;5078;42.544;22.966;2023-04-24T05:54:00;93583.63;;;15.08;75.56
10079;BME280;5078;42.544;22.966;2023-04-24T05:56:27;93577.78;;;15.31;72.80
10079;BME280;5078;42.544;22.966;2023-04-24T05:58:55;93586.50;;;15.58;69.83
10079;BME280;5078;42.544;22.966;2023-04-24T06:01:22;93581.06;;;15.26;73.58
10079;BME280;5078;42.544;22.966;2023-04-24T06:03:50;93589.00;;;14.81;74.20
10079;BME280;5078;42.544;22.966;2023-04-24T06:06:18;93597.66;;;14.43;76.67
10079;BME280;5078;42.544;22.966;2023-04-24T06:08:44;93600.72;;;14.74;77.78
10079;BME280;5078;42.544;22.966;2023-04-24T06:11:11;93595.53;;;14.99;76.92
10079;BME280;5078;42.544;22.966;2023-04-24T06:13:38;93591.69;;;15.40;72.59
10079;BME280;5078;42.544;22.966;2023-04-24T06:16:06;93581.81;;;15.47;73.49
10079;BME280;5078;42.544;22.966;2023-04-24T06:18:33;93577.34;;;15.79;70.79
10079;BME280;5078;42.544;22.966;2023-04-24T06:20:59;93583.78;;;15.71;70.46
10079;BME280;5078;42.544;22.966;2023-04-24T06:23:26;93586.53;;;16.22;66.18
10079;BME280;5078;42.544;22.966;2023-04-24T06:25:53;93580.59;;;16.45;64.13
10079;BME280;5078;42.544;22.966;2023-04-24T06:28:20;93581.03;;;16.67;61.10
10079;BME280;5078;42.544;22.966;2023-04-24T06:30:46;93586.78;;;16.95;60.16
10079;BME280;5078;42.544;22.966;2023-04-24T06:33:15;93580.22;;;16.66;60.46
10079;BME280;5078;42.544;22.966;2023-04-24T06:35:42;93573.41;;;16.45;61.94
10079;BME280;5078;42.544;22.966;2023-04-24T06:38:09;93575.06;;;16.90;60.51
10079;BME280;5078;42.544;22.966;2023-04-24T06:40:35;93583.59;;;17.05;60.81
10079;BME280;5078;42.544;22.966;2023-04-24T06:43:02;93580.94;;;17.54;56.84
10079;BME280;5078;42.544;22.966;2023-04-24T06:45:29;93575.75;;;17.40;57.26
10079;BME280;5078;42.544;22.966;2023-04-24T06:47:56;93581.25;;;16.90;58.78
10079;BME280;5078;42.544;22.966;2023-04-24T06:50:24;93576.16;;;16.57;59.13
10079;BME280;5078;42.544;22.966;2023-04-24T06:52:51;93571.25;;;16.29;62.01
10079;BME280;5078;42.544;22.966;2023-04-24T06:55:18;93569.34;;;16.36;62.93
10079;BME280;5078;42.544;22.966;2023-04-24T06:57:44;93564.44;;;16.33;62.20
10079;BME280;5078;42.544;22.966;2023-04-24T07:00:12;93576.81;;;16.52;60.96
10079;BME280;5078;42.544;22.966;2023-04-24T07:02:39;93566.81;;;16.91;58.32
10079;BME280;5078;42.544;22.966;2023-04-24T07:05:08;93573.81;;;17.29;57.63
10079;BME280;5078;42.544;22.966;2023-04-24T07:07:37;93564.81;;;17.42;58.26
10079;BME280;5078;42.544;22.966;2023-04-24T07:10:06;93565.94;;;17.53;57.04
10079;BME280;5078;42.544;22.966;2023-04-24T07:12:33;93565.66;;;17.73;55.73
10079;BME280;5078;42.544;22.966;2023-04-24T07:15:01;93562.28;;;17.96;55.16
10079;BME280;5078;42.544;22.966;2023-04-24T07:17:27;93562.81;;;17.86;55.90
10079;BME280;5078;42.544;22.966;2023-04-24T07:19:54;93557.91;;;18.13;55.79
10079;BME280;5078;42.544;22.966;2023-04-24T07:22:21;93551.63;;;18.31;54.36
10079;BME280;5078;42.544;22.966;2023-04-24T07:24:49;93545.59;;;18.59;53.90
10079;BME280;5078;42.544;22.966;2023-04-24T07:27:16;93540.84;;;18.85;51.81
10079;BME280;5078;42.544;22.966;2023-04-24T07:29:43;93539.84;;;19.14;51.89
10079;BME280;5078;42.544;22.966;2023-04-24T07:32:10;93542.78;;;19.25;51.07
10079;BME280;5078;42.544;22.966;2023-04-24T07:34:36;93545.28;;;19.03;48.30
10079;BME280;5078;42.544;22.966;2023-04-24T07:37:03;93531.06;;;19.31;47.48
10079;BME280;5078;42.544;22.966;2023-04-24T07:39:30;93536.34;;;19.14;47.93
10079;BME280;5078;42.544;22.966;2023-04-24T07:41:58;93544.31;;;19.21;47.55
10079;BME280;5078;42.544;22.966;2023-04-24T07:44:27;93524.41;;;19.22;46.55
10079;BME280;5078;42.544;22.966;2023-04-24T07:46:54;93525.91;;;19.41;46.77
10079;BME280;5078;42.544;22.966;2023-04-24T07:49:22;93516.25;;;19.69;45.75
10079;BME280;5078;42.544;22.966;2023-04-24T07:51:49;93507.63;;;19.83;46.58
10079;BME280;5078;42.544;22.966;2023-04-24T07:54:15;93518.22;;;20.19;45.08
10079;BME280;5078;42.544;22.966;2023-04-24T07:56:43;93515.13;;;20.27;45.13
10079;BME280;5078;42.544;22.966;2023-04-24T07:59:11;93521.44;;;20.50;45.39
10079;BME280;5078;42.544;22.966;2023-04-24T08:01:38;93518.00;;;20.71;45.24
10079;BME280;5078;42.544;22.966;2023-04-24T08:04:05;93516.94;;;20.72;43.33
10079;BME280;5078;42.544;22.966;2023-04-24T08:06:31;93509.50;;;20.45;42.37
10079;BME280;5078;42.544;22.966;2023-04-24T08:08:59;93523.53;;;20.81;41.69
10079;BME280;5078;42.544;22.966;2023-04-24T08:11:26;93513.31;;;20.83;40.44
10079;BME280;5078;42.544;22.966;2023-04-24T08:13:53;93500.91;;;21.21;40.07
10079;BME280;5078;42.544;22.966;2023-04-24T08:16:21;93484.66;;;21.38;39.86
10079;BME280;5078;42.544;22.966;2023-04-24T08:18:49;93498.91;;;21.33;39.06
10079;BME280;5078;42.544;22.966;2023-04-24T08:21:15;93502.16;;;21.36;39.77
10079;BME280;5078;42.544;22.966;2023-04-24T08:23:44;93493.22;;;21.52;40.62
10079;BME280;5078;42.544;22.966;2023-04-24T08:26:10;93491.41;;;21.58;40.36
10079;BME280;5078;42.544;22.966;2023-04-24T08:28:37;93492.13;;;22.02;39.34
10079;BME280;5078;42.544;22.966;2023-04-24T08:31:04;93483.16;;;21.69;38.73
10079;BME280;5078;42.544;22.966;2023-04-24T08:33:32;93493.31;;;21.84;38.22
10079;BME280;5078;42.544;22.966;2023-04-24T08:36:00;93431.63;;;21.71;37.11
10079;BME280;5078;42.544;22.966;2023-04-24T08:38:26;93479.69;;;22.28;37.20
10079;BME280;5078;42.544;22.966;2023-04-24T08:40:53;93480.88;;;21.83;38.05
10079;BME280;5078;42.544;22.966;2023-04-24T08:43:21;93473.13;;;22.19;37.22
10079;BME280;5078;42.544;22.966;2023-04-24T08:45:48;93466.78;;;22.35;36.71
10079;BME280;5078;42.544;22.966;2023-04-24T08:48:15;93464.16;;;22.83;36.63
10079;BME280;5078;42.544;22.966;2023-04-24T08:50:44;93462.34;;;22.56;36.93
10079;BME280;5078;42.544;22.966;2023-04-24T08:53:11;93449.69;;;22.62;37.09
10079;BME280;5078;42.544;22.966;2023-04-24T08:55:38;93465.59;;;22.21;37.18
10079;BME280;5078;42.544;22.966;2023-04-24T08:58:06;93459.59;;;21.60;37.26
10079;BME280;5078;42.544;22.966;2023-04-24T09:00:33;93455.72;;;21.78;37.88
10079;BME280;5078;42.544;22.966;2023-04-24T09:03:00;93461.16;;;21.56;38.13
10079;BME280;5078;42.544;22.966;2023-04-24T09:05:34;93440.34;;;22.10;37.58
10079;BME280;5078;42.544;22.966;2023-04-24T09:08:04;93445.81;;;22.15;37.90
10079;BME280;5078;42.544;22.966;2023-04-24T09:10:35;93436.59;;;21.52;37.93
10079;BME280;5078;42.544;22.966;2023-04-24T09:13:05;93433.84;;;21.47;38.26
10079;BME280;5078;42.544;22.966;2023-04-24T09:15:40;93432.59;;;21.87;37.85
10079;BME280;5078;42.544;22.966;2023-04-24T09:18:07;93442.53;;;22.13;37.52
10079;BME280;5078;42.544;22.966;2023-04-24T09:21:00;93425.28;;;22.14;36.69
10079;BME280;5078;42.544;22.966;2023-04-24T09:23:29;93428.09;;;22.25;36.86
10079;BME280;5078;42.544;22.966;2023-04-24T09:26:00;93428.41;;;22.01;37.02
10079;BME280;5078;42.544;22.966;2023-04-24T09:28:31;93412.50;;;22.05;37.51
10079;BME280;5078;42.544;22.966;2023-04-24T09:31:06;93423.25;;;22.27;36.51
10079;BME280;5078;42.544;22.966;2023-04-24T09:33:33;93420.84;;;21.22;37.87
10079;BME280;5078;42.544;22.966;2023-04-24T09:36:04;93425.41;;;21.21;38.06
10079;BME280;5078;42.544;22.966;2023-04-24T09:38:36;93415.97;;;21.68;36.87
10079;BME280;5078;42.544;22.966;2023-04-24T09:41:05;93402.03;;;22.13;36.12
10079;BME280;5078;42.544;22.966;2023-04-24T09:43:33;93399.19;;;21.93;35.49
10079;BME280;5078;42.544;22.966;2023-04-24T09:46:05;93403.88;;;21.75;33.55
10079;BME280;5078;42.544;22.966;2023-04-24T09:48:33;93409.13;;;21.60;33.58
10079;BME280;5078;42.544;22.966;2023-04-24T09:51:04;93415.25;;;21.50;34.76
10079;BME280;5078;42.544;22.966;2023-04-24T09:53:32;93407.09;;;21.23;34.78
10079;BME280;5078;42.544;22.966;2023-04-24T09:56:07;93404.06;;;20.93;33.42
10079;BME280;5078;42.544;22.966;2023-04-24T09:58:35;93402.72;;;20.95;34.26
10079;BME280;5078;42.544;22.966;2023-04-24T10:01:02;93399.06;;;21.28;33.59
10079;BME280;5078;42.544;22.966;2023-04-24T10:03:29;93385.75;;;21.44;34.89
10079;BME280;5078;42.544;22.966;2023-04-24T10:05:58;93402.91;;;21.32;35.88
10079;BME280;5078;42.544;22.966;2023-04-24T10:08:26;93392.69;;;20.68;36.71
10079;BME280;5078;42.544;22.966;2023-04-24T10:10:59;93386.63;;;21.00;36.44
10079;BME280;5078;42.544;22.966;2023-04-24T10:13:28;93385.03;;;20.04;39.55
10079;BME280;5078;42.544;22.966;2023-04-24T10:15:56;93394.00;;;20.49;38.42
10079;BME280;5078;42.544;22.966;2023-04-24T10:18:24;93381.53;;;20.60;38.42
10079;BME280;5078;42.544;22.966;2023-04-24T10:20:52;93382.94;;;20.84;38.87
10079;BME280;5078;42.544;22.966;2023-04-24T10:23:20;93377.03;;;21.09;38.38
10079;BME280;5078;42.544;22.966;2023-04-24T10:25:48;93361.09;;;21.08;39.17
10079;BME280;5078;42.544;22.966;2023-04-24T10:28:17;93358.47;;;21.13;38.52
10079;BME280;5078;42.544;22.966;2023-04-24T10:30:47;93349.78;;;20.62;37.86
10079;BME280;5078;42.544;22.966;2023-04-24T10:33:16;93365.63;;;20.58;38.44
10079;BME280;5078;42.544;22.966;2023-04-24T10:35:45;93374.66;;;20.30;38.08
10079;BME280;5078;42.544;22.966;2023-04-24T10:38:16;93369.91;;;20.20;38.74
10079;BME280;5078;42.544;22.966;2023-04-24T10:40:45;93380.94;;;20.19;38.71
10079;BME280;5078;42.544;22.966;2023-04-24T10:43:17;93377.56;;;20.29;38.49
10079;BME280;5078;42.544;22.966;2023-04-24T10:48:42;93378.78;;;20.38;38.53
10079;BME280;5078;42.544;22.966;2023-04-24T10:51:11;93383.22;;;20.27;39.55
10079;BME280;5078;42.544;22.966;2023-04-24T10:53:39;93371.81;;;20.20;41.00
10079;BME280;5078;42.544;22.966;2023-04-24T10:56:07;93376.53;;;19.96;42.62
10079;BME280;5078;42.544;22.966;2023-04-24T10:58:40;93347.69;;;19.74;42.70
10079;BME280;5078;42.544;22.966;2023-04-24T11:01:23;93360.53;;;19.55;42.48
10079;BME280;5078;42.544;22.966;2023-04-24T11:03:54;93372.81;;;19.51;43.72
10079;BME280;5078;42.544;22.966;2023-04-24T11:06:28;93374.66;;;19.34;43.24
10079;BME280;5078;42.544;22.966;2023-04-24T11:09:02;93361.72;;;19.31;43.54
10079;BME280;5078;42.544;22.966;2023-04-24T11:11:31;93358.09;;;19.37;44.08
10079;BME280;5078;42.544;22.966;2023-04-24T11:14:05;93336.31;;;19.38;44.34
10079;BME280;5078;42.544;22.966;2023-04-24T11:16:38;93341.53;;;19.28;48.60
10079;BME280;5078;42.544;22.966;2023-04-24T11:19:08;93336.75;;;19.47;47.60
10079;BME280;5078;42.544;22.966;2023-04-24T11:21:43;93326.78;;;18.73;53.76
10079;BME280;5078;42.544;22.966;2023-04-24T11:24:27;93333.44;;;18.71;53.71
10079;BME280;5078;42.544;22.966;2023-04-24T11:26:56;93322.03;;;18.52;51.15
10079;BME280;5078;42.544;22.966;2023-04-24T11:29:38;93333.34;;;18.78;50.17
10079;BME280;5078;42.544;22.966;2023-04-24T11:32:15;93325.88;;;18.68;49.06
10079;BME280;5078;42.544;22.966;2023-04-24T11:34:46;93327.41;;;18.52;50.29
10079;BME280;5078;42.544;22.966;2023-04-24T11:37:13;93327.09;;;18.89;44.76
10079;BME280;5078;42.544;22.966;2023-04-24T11:39:40;93309.06;;;18.61;51.97
10079;BME280;5078;42.544;22.966;2023-04-24T11:42:07;93317.34;;;18.59;51.03
10079;BME280;5078;42.544;22.966;2023-04-24T11:44:35;93303.00;;;18.94;49.14
10079;BME280;5078;42.544;22.966;2023-04-24T11:47:03;93313.81;;;19.28;44.96
10079;BME280;5078;42.544;22.966;2023-04-24T11:49:29;93306.88;;;19.32;45.75
10079;BME280;5078;42.544;22.966;2023-04-24T11:51:57;93290.63;;;19.55;43.98
10079;BME280;5078;42.544;22.966;2023-04-24T11:54:26;93294.94;;;19.23;47.38
10079;BME280;5078;42.544;22.966;2023-04-24T11:56:52;93294.84;;;19.51;48.55
10079;BME280;5078;42.544;22.966;2023-04-24T11:59:19;93302.34;;;19.32;49.06
10079;BME280;5078;42.544;22.966;2023-04-24T12:01:46;93300.78;;;19.20;50.24
10079;BME280;5078;42.544;22.966;2023-04-24T12:04:17;93287.66;;;19.06;47.40
10079;BME280;5078;42.544;22.966;2023-04-24T12:09:45;93291.69;;;19.37;47.33
10079;BME280;5078;42.544;22.966;2023-04-24T12:12:13;93271.06;;;19.26;45.71
10079;BME280;5078;42.544;22.966;2023-04-24T12:14:50;93285.53;;;18.51;47.25
10079;BME280;5078;42.544;22.966;2023-04-24T12:17:24;93277.75;;;18.66;46.26
10079;BME280;5078;42.544;22.966;2023-04-24T12:19:52;93272.06;;;18.63;46.37
10079;BME280;5078;42.544;22.966;2023-04-24T12:22:19;93264.75;;;18.46;47.35
10079;BME280;5078;42.544;22.966;2023-04-24T12:25:01;93258.47;;;18.41;47.78
10079;BME280;5078;42.544;22.966;2023-04-24T12:27:30;93254.13;;;18.11;51.65
10079;BME280;5078;42.544;22.966;2023-04-24T12:29:58;93265.22;;;18.15;52.92
10079;BME280;5078;42.544;22.966;2023-04-24T12:32:25;93258.44;;;18.12;51.87
10079;BME280;5078;42.544;22.966;2023-04-24T12:34:53;93269.53;;;18.04;54.71
10079;BME280;5078;42.544;22.966;2023-04-24T12:37:20;93255.22;;;17.86;57.63
10079;BME280;5078;42.544;22.966;2023-04-24T12:40:00;93262.34;;;17.93;55.43
10079;BME280;5078;42.544;22.966;2023-04-24T12:42:28;93256.72;;;18.06;55.77
10079;BME280;5078;42.544;22.966;2023-04-24T12:44:57;93236.44;;;18.39;54.15
10079;BME280;5078;42.544;22.966;2023-04-24T12:47:25;93239.13;;;18.67;52.95
10079;BME280;5078;42.544;22.966;2023-04-24T12:49:52;93235.69;;;19.01;49.99
10079;BME280;5078;42.544;22.966;2023-04-24T12:52:20;93231.16;;;19.35;47.25
10079;BME280;5078;42.544;22.966;2023-04-24T12:54:47;93223.97;;;19.40;45.09
10079;BME280;5078;42.544;22.966;2023-04-24T12:57:15;93223.78;;;19.64;45.58
10079;BME280;5078;42.544;22.966;2023-04-24T12:59:42;93210.09;;;19.82;43.92
10079;BME280;5078;42.544;22.966;2023-04-24T13:02:09;93210.28;;;19.98;44.00
10079;BME280;5078;42.544;22.966;2023-04-24T13:04:36;93202.72;;;19.95;44.36
10079;BME280;5078;42.544;22.966;2023-04-24T13:07:03;93199.09;;;20.06;41.16